createdAt,value
2023-02-19T00:01:53.732Z,39.20
2023-02-19T00:04:59.720Z,40.05
2023-02-19T00:08:02.351Z,38.08
2023-02-19T00:11:08.263Z,37.43
2023-02-19T00:14:14.821Z,39.80
2023-02-19T00:17:20.329Z,39.58
2023-02-19T00:20:22.905Z,37.63
2023-02-19T00:23:28.427Z,36.97
2023-02-19T00:26:31.485Z,43.07
2023-02-19T00:29:37.048Z,35.00
2023-02-19T00:32:39.705Z,39.40
2023-02-19T00:35:46.591Z,41.30
2023-02-19T00:38:49.681Z,38.90
2023-02-19T00:41:55.110Z,40.13
2023-02-19T00:44:58.219Z,37.10
2023-02-19T00:48:00.828Z,38.45
2023-02-19T00:51:05.929Z,36.78
2023-02-19T00:54:08.476Z,37.20
2023-02-19T00:57:10.948Z,32.03
2023-02-19T01:00:13.970Z,33.70
2023-02-19T01:03:16.678Z,33.67
2023-02-19T01:06:21.245Z,31.85
2023-02-19T01:09:23.804Z,31.63
2023-02-19T01:12:28.235Z,32.77
2023-02-19T01:15:33.273Z,31.43
2023-02-19T01:18:35.912Z,29.15
2023-02-19T01:21:40.538Z,32.67
2023-02-19T01:24:43.058Z,36.65
2023-02-19T01:27:45.758Z,33.97
2023-02-19T01:30:48.281Z,31.67
2023-02-19T01:33:53.522Z,33.13
2023-02-19T01:36:56.141Z,35.17
2023-02-19T01:39:58.732Z,36.60
2023-02-19T01:43:01.538Z,42.33
2023-02-19T01:46:04.273Z,40.10
2023-02-19T01:49:23.564Z,44.35
2023-02-19T01:52:31.884Z,42.88
2023-02-19T01:55:35.348Z,44.20
2023-02-19T01:58:38.343Z,44.17
2023-02-19T02:01:41.278Z,41.30
2023-02-19T02:04:43.984Z,39.22
2023-02-19T02:08:04.812Z,44.00
2023-02-19T02:11:07.521Z,38.88
2023-02-19T02:14:10.390Z,43.50
2023-02-19T02:17:24.633Z,35.73
2023-02-19T02:20:54.472Z,37.08
2023-02-19T02:24:21.344Z,38.15
2023-02-19T02:27:59.038Z,35.28
2023-02-19T02:31:25.742Z,35.80
2023-02-19T02:34:34.940Z,36.37
2023-02-19T02:37:42.693Z,44.47
2023-02-19T02:40:45.732Z,34.10
2023-02-19T02:43:50.618Z,37.30
2023-02-19T02:46:53.519Z,33.57
2023-02-19T02:50:07.038Z,34.40
2023-02-19T02:53:37.556Z,32.22
2023-02-19T02:56:50.540Z,35.60
2023-02-19T02:59:53.347Z,32.67
2023-02-19T03:02:57.997Z,34.77
2023-02-19T03:06:04.257Z,35.30
2023-02-19T03:09:16.237Z,35.42
2023-02-19T03:12:40.324Z,34.65
2023-02-19T03:16:06.428Z,35.03
2023-02-19T03:19:19.110Z,35.20
2023-02-19T03:22:29.894Z,36.23
2023-02-19T03:25:55.224Z,39.85
2023-02-19T03:29:23.653Z,34.92
2023-02-19T03:32:36.307Z,36.78
2023-02-19T03:35:49.602Z,35.30
2023-02-19T03:39:07.384Z,35.37
2023-02-19T03:42:11.217Z,34.35
2023-02-19T03:45:24.914Z,37.05
2023-02-19T03:48:37.858Z,35.08
2023-02-19T03:51:51.582Z,37.00
2023-02-19T03:55:18.599Z,37.67
2023-02-19T03:58:30.619Z,37.90
2023-02-19T04:01:36.206Z,37.53
2023-02-19T04:04:49.982Z,37.80
2023-02-19T04:08:06.359Z,37.00
2023-02-19T04:11:17.064Z,32.53
2023-02-19T04:15:00.856Z,33.38
2023-02-19T04:18:10.789Z,34.33
2023-02-19T04:21:13.622Z,33.03
2023-02-19T04:24:26.610Z,32.83
2023-02-19T04:27:29.240Z,30.93
2023-02-19T04:30:34.850Z,34.45
2023-02-19T04:33:40.961Z,34.55
2023-02-19T04:36:43.431Z,31.90
2023-02-19T04:39:49.252Z,34.23
2023-02-19T04:42:51.813Z,31.83
2023-02-19T04:46:01.915Z,32.67
2023-02-19T04:49:08.348Z,32.60
2023-02-19T04:52:13.549Z,30.30
2023-02-19T04:55:16.160Z,32.20
2023-02-19T04:58:18.932Z,33.83
2023-02-19T05:01:21.564Z,33.17
2023-02-19T05:04:26.843Z,33.85
2023-02-19T05:07:29.417Z,34.00
2023-02-19T05:10:37.309Z,29.10
2023-02-19T05:13:40.409Z,31.63
2023-02-19T05:16:43.170Z,32.22
2023-02-19T05:19:45.695Z,30.40
2023-02-19T05:22:51.028Z,31.42
2023-02-19T05:25:54.230Z,30.87
2023-02-19T05:29:00.482Z,32.90
2023-02-19T05:32:06.450Z,31.55
2023-02-19T05:35:10.426Z,30.35
2023-02-19T05:38:13.093Z,31.98
2023-02-19T05:41:18.371Z,29.33
2023-02-19T05:44:21.160Z,31.23
2023-02-19T05:47:23.686Z,28.73
2023-02-19T05:50:28.729Z,28.58
2023-02-19T05:53:33.465Z,28.95
2023-02-19T05:56:46.420Z,28.20
2023-02-19T05:59:48.992Z,27.00
2023-02-19T06:02:53.828Z,31.23
2023-02-19T06:05:59.636Z,29.38
2023-02-19T06:09:02.278Z,31.38
2023-02-19T06:12:07.390Z,28.00
2023-02-19T06:15:09.972Z,31.40
2023-02-19T06:18:15.959Z,30.00
2023-02-19T06:21:19.042Z,31.48
2023-02-19T06:24:24.305Z,30.50
2023-02-19T06:27:29.619Z,35.00
2023-02-19T06:30:34.962Z,32.23
2023-02-19T06:33:40.652Z,38.72
2023-02-19T06:36:43.375Z,34.28
2023-02-19T06:39:45.924Z,31.77
2023-02-19T06:42:51.385Z,35.47
2023-02-19T06:45:56.147Z,31.50
2023-02-19T06:48:59.704Z,33.35
2023-02-19T06:52:04.716Z,30.15
2023-02-19T06:55:10.841Z,33.70
2023-02-19T06:58:13.437Z,32.60
2023-02-19T07:01:16.160Z,31.53
2023-02-19T07:04:18.907Z,32.65
2023-02-19T07:07:21.554Z,35.47
2023-02-19T07:10:29.286Z,33.75
2023-02-19T07:13:31.908Z,31.87
2023-02-19T07:16:38.973Z,34.67
2023-02-19T07:19:41.628Z,32.35
2023-02-19T07:22:46.754Z,38.08
2023-02-19T07:25:49.278Z,34.10
2023-02-19T07:28:54.756Z,36.10
2023-02-19T07:31:57.392Z,35.97
2023-02-19T07:35:04.005Z,42.00
2023-02-19T07:38:06.595Z,36.90
2023-02-19T07:41:09.451Z,41.53
2023-02-19T07:44:16.547Z,36.77
2023-02-19T07:47:22.240Z,43.33
2023-02-19T07:50:24.766Z,35.95
2023-02-19T07:53:27.727Z,46.35
2023-02-19T07:56:36.298Z,65.88
2023-02-19T07:59:41.922Z,51.30
2023-02-19T08:03:00.362Z,36.70
2023-02-19T08:06:03.328Z,39.78
2023-02-19T08:09:08.255Z,39.28
2023-02-19T08:12:31.583Z,44.17
2023-02-19T08:15:34.142Z,46.87
2023-02-19T08:18:36.824Z,36.10
2023-02-19T08:21:39.995Z,33.70
2023-02-19T08:24:43.122Z,36.15
2023-02-19T08:27:48.216Z,39.60
2023-02-19T08:30:51.118Z,42.20
2023-02-19T08:33:56.403Z,42.93
2023-02-19T08:36:58.990Z,35.08
2023-02-19T08:40:01.589Z,44.92
2023-02-19T08:43:05.820Z,41.47
2023-02-19T08:46:11.821Z,40.07
2023-02-19T08:49:17.179Z,45.83
2023-02-19T08:52:19.638Z,41.47
2023-02-19T08:55:22.251Z,35.20
2023-02-19T08:58:27.582Z,35.05
2023-02-19T09:01:30.159Z,36.60
2023-02-19T09:04:37.821Z,35.43
2023-02-19T09:07:40.801Z,35.22
2023-02-19T09:10:43.550Z,36.55
2023-02-19T09:13:46.193Z,39.08
2023-02-19T09:16:48.716Z,34.67
2023-02-19T09:19:51.309Z,37.17
2023-02-19T09:22:58.508Z,39.83
2023-02-19T09:26:06.900Z,40.05
2023-02-19T09:29:09.583Z,38.17
2023-02-19T09:32:15.521Z,40.40
2023-02-19T09:35:18.825Z,39.37
2023-02-19T09:38:21.518Z,35.53
2023-02-19T09:41:26.729Z,41.30
2023-02-19T09:44:37.541Z,32.22
2023-02-19T09:47:40.189Z,36.03
2023-02-19T09:50:50.180Z,36.40
2023-02-19T09:53:54.145Z,37.75
2023-02-19T09:57:00.049Z,35.42
2023-02-19T10:00:27.904Z,35.15
2023-02-19T10:03:43.345Z,39.17
2023-02-19T10:06:46.836Z,36.03
2023-02-19T10:09:57.827Z,35.10
2023-02-19T10:13:42.917Z,37.97
2023-02-19T10:16:48.125Z,35.38
2023-02-19T10:19:52.128Z,37.03
2023-02-19T10:23:13.851Z,38.97
2023-02-19T10:26:16.537Z,37.97
2023-02-19T10:29:20.291Z,30.38
2023-02-19T10:32:25.368Z,37.05
2023-02-19T10:35:30.297Z,33.83
2023-02-19T10:38:39.282Z,31.43
2023-02-19T10:41:44.130Z,28.45
2023-02-19T10:44:53.941Z,37.30
2023-02-19T10:47:57.009Z,31.60
2023-02-19T10:51:06.237Z,34.70
2023-02-19T10:54:34.918Z,28.67
2023-02-19T10:57:38.138Z,31.88
2023-02-19T11:00:40.846Z,28.65
2023-02-19T11:03:43.724Z,35.92
2023-02-19T11:06:46.989Z,31.00
2023-02-19T11:09:53.844Z,38.27
2023-02-19T11:13:03.845Z,31.75
2023-02-19T11:16:06.576Z,31.60
2023-02-19T11:19:31.907Z,32.47
2023-02-19T11:22:38.591Z,32.53
2023-02-19T11:25:56.482Z,30.50
2023-02-19T11:29:01.340Z,30.33
2023-02-19T11:32:26.359Z,26.30
2023-02-19T11:35:31.803Z,28.00
2023-02-19T11:38:36.537Z,26.73
2023-02-19T11:41:57.159Z,27.40
2023-02-19T11:45:14.709Z,29.35
2023-02-19T11:48:38.810Z,31.02
2023-02-19T11:51:56.589Z,30.95
2023-02-19T11:55:26.385Z,27.97
2023-02-19T11:58:54.407Z,34.03
2023-02-19T12:02:27.278Z,30.08
2023-02-19T12:05:41.259Z,26.17
2023-02-19T12:09:09.721Z,31.10
2023-02-19T12:12:18.150Z,34.53
2023-02-19T12:19:14.067Z,32.80
2023-02-19T12:22:22.606Z,28.27
2023-02-19T12:25:42.035Z,28.90
2023-02-19T12:29:18.804Z,28.47
2023-02-19T12:32:53.484Z,27.17
2023-02-19T12:36:21.000Z,28.65
2023-02-19T12:39:41.626Z,28.38
2023-02-19T12:43:09.182Z,29.95
2023-02-19T12:46:48.063Z,27.97
2023-02-19T12:50:11.568Z,26.83
2023-02-19T12:53:26.059Z,26.48
2023-02-19T12:56:52.731Z,25.83
2023-02-19T13:00:07.469Z,27.45
2023-02-19T13:03:37.639Z,29.27
2023-02-19T13:06:51.976Z,24.93
2023-02-19T13:10:07.090Z,22.75
2023-02-19T13:13:28.200Z,23.85
2023-02-19T13:16:35.393Z,27.48
2023-02-19T13:19:41.499Z,25.93
2023-02-19T13:23:07.432Z,24.97
2023-02-19T13:26:19.093Z,24.05
2023-02-19T13:29:43.035Z,22.83
2023-02-19T13:33:09.848Z,21.13
2023-02-19T13:36:27.777Z,21.83
2023-02-19T13:39:34.237Z,21.27
2023-02-19T13:42:37.098Z,17.80
2023-02-19T13:45:47.284Z,17.02
2023-02-19T13:49:10.193Z,17.45
2023-02-19T13:52:34.136Z,8.33
2023-02-19T13:55:42.093Z,13.77
2023-02-19T13:59:01.654Z,12.65
2023-02-19T14:02:04.369Z,14.52
2023-02-19T14:05:11.423Z,14.95
2023-02-19T14:08:33.892Z,14.07
2023-02-19T14:11:42.720Z,11.30
2023-02-19T14:14:50.320Z,11.80
2023-02-19T14:17:55.802Z,10.82
2023-02-19T14:21:17.988Z,10.90
2023-02-19T14:24:20.835Z,11.60
2023-02-19T14:27:23.804Z,11.87
2023-02-19T14:30:27.637Z,13.98
2023-02-19T14:33:45.585Z,11.57
2023-02-19T14:37:01.841Z,13.52
2023-02-19T14:40:05.453Z,12.63
2023-02-19T14:43:14.207Z,15.97
2023-02-19T14:46:39.544Z,12.85
2023-02-19T14:49:57.844Z,11.20
2023-02-19T14:53:04.489Z,9.07
2023-02-19T14:56:17.009Z,12.07
2023-02-19T14:59:26.090Z,5.60
2023-02-19T15:02:31.698Z,5.75
2023-02-19T15:05:40.248Z,8.25
2023-02-19T15:08:48.944Z,13.10
2023-02-19T15:11:51.864Z,6.27
2023-02-19T15:15:01.165Z,5.23
2023-02-19T15:18:06.727Z,5.50
2023-02-19T15:21:23.664Z,7.43
2023-02-19T15:24:28.353Z,6.88
2023-02-19T15:27:34.568Z,4.10
2023-02-19T15:30:39.921Z,5.40
2023-02-19T15:33:50.549Z,3.83
2023-02-19T15:37:05.927Z,3.15
2023-02-19T15:40:14.098Z,4.55
2023-02-19T15:43:40.042Z,3.50
2023-02-19T15:46:44.124Z,2.93
2023-02-19T15:49:54.530Z,3.42
2023-02-19T15:53:15.040Z,3.40
2023-02-19T15:56:28.445Z,6.53
2023-02-19T15:59:56.615Z,3.53
2023-02-19T16:02:59.816Z,7.27
2023-02-19T16:06:14.271Z,7.55
2023-02-19T16:09:23.772Z,4.78
2023-02-19T16:12:29.808Z,7.47
2023-02-19T16:15:33.312Z,8.23
2023-02-19T16:18:44.118Z,6.00
2023-02-19T16:21:46.937Z,8.85
2023-02-19T16:25:13.094Z,4.60
2023-02-19T16:28:24.264Z,4.85
2023-02-19T16:31:27.196Z,5.00
2023-02-19T16:34:47.822Z,7.00
2023-02-19T16:37:58.561Z,5.10
2023-02-19T16:41:07.332Z,6.40
2023-02-19T16:44:22.108Z,4.70
2023-02-19T16:47:33.165Z,5.67
2023-02-19T16:50:36.277Z,4.23
2023-02-19T16:53:39.048Z,3.88
2023-02-19T16:56:41.763Z,4.05
2023-02-19T16:59:48.154Z,3.22
2023-02-19T17:02:53.041Z,4.20
2023-02-19T17:05:56.436Z,3.30
2023-02-19T17:08:59.245Z,2.92
2023-02-19T17:12:02.037Z,2.92
2023-02-19T17:15:05.033Z,3.88
2023-02-19T17:18:12.905Z,3.93
2023-02-19T17:21:25.187Z,3.00
2023-02-19T17:24:30.864Z,3.22
2023-02-19T17:27:35.964Z,3.22
2023-02-19T17:30:40.516Z,4.50
2023-02-19T17:33:43.827Z,4.00
2023-02-19T17:36:48.141Z,3.50
2023-02-19T17:39:50.935Z,3.50
2023-02-19T17:42:53.788Z,3.33
2023-02-19T17:45:56.389Z,2.83
2023-02-19T17:48:59.212Z,4.33
2023-02-19T17:52:04.785Z,3.00
2023-02-19T17:55:11.482Z,2.70
2023-02-19T17:58:14.602Z,3.47
2023-02-19T18:01:17.402Z,4.13
2023-02-19T18:04:20.033Z,5.77
2023-02-19T18:07:22.856Z,5.13
2023-02-19T18:10:25.724Z,7.07
2023-02-19T18:13:28.672Z,6.75
2023-02-19T18:16:31.473Z,7.30
2023-02-19T18:19:34.240Z,3.40
2023-02-19T18:22:39.940Z,2.63
2023-02-19T18:25:43.447Z,3.70
2023-02-19T18:28:47.064Z,4.80
2023-02-19T18:31:58.876Z,4.63
2023-02-19T18:35:02.097Z,4.73
2023-02-19T18:38:05.018Z,3.83
2023-02-19T18:41:12.939Z,2.80
2023-02-19T18:44:23.786Z,2.80
2023-02-19T18:47:27.106Z,2.15
2023-02-19T18:50:29.880Z,2.23
2023-02-19T18:53:32.670Z,3.27
2023-02-19T18:56:47.958Z,3.00
2023-02-19T18:59:50.967Z,2.80
2023-02-19T19:03:00.231Z,2.72
2023-02-19T19:06:03.054Z,2.10
2023-02-19T19:09:06.163Z,3.17
2023-02-19T19:12:08.903Z,2.25
2023-02-19T19:15:11.531Z,2.60
2023-02-19T19:18:14.132Z,2.70
2023-02-19T19:21:17.065Z,2.77
2023-02-19T19:24:20.488Z,3.83
2023-02-19T19:27:23.351Z,3.22
2023-02-19T19:30:26.398Z,2.90
2023-02-19T19:33:29.212Z,4.82
2023-02-19T19:36:36.712Z,3.27
2023-02-19T19:39:39.603Z,3.50
2023-02-19T19:42:44.869Z,3.88
2023-02-19T19:45:50.062Z,3.22
2023-02-19T19:48:59.050Z,5.53
2023-02-19T19:52:01.927Z,3.40
2023-02-19T19:55:08.254Z,2.73
2023-02-19T19:58:11.131Z,2.75
2023-02-19T20:01:15.209Z,4.35
2023-02-19T20:04:21.884Z,3.55
2023-02-19T20:07:24.657Z,4.73
2023-02-19T20:10:27.421Z,4.10
2023-02-19T20:13:34.564Z,4.72
2023-02-19T20:16:37.601Z,2.67
2023-02-19T20:19:40.428Z,2.65
2023-02-19T20:22:43.498Z,5.53
2023-02-19T20:25:48.804Z,5.50
2023-02-19T20:28:52.181Z,4.47
2023-02-19T20:31:55.630Z,3.63
2023-02-19T20:34:58.548Z,3.75
2023-02-19T20:38:01.359Z,3.83
2023-02-19T20:41:06.661Z,4.20
2023-02-19T20:44:09.905Z,3.75
2023-02-19T20:47:12.707Z,2.75
2023-02-19T20:50:17.917Z,3.10
2023-02-19T20:53:20.741Z,3.80
2023-02-19T20:56:26.757Z,3.57
2023-02-19T20:59:34.936Z,2.60
2023-02-19T21:02:37.621Z,3.78
2023-02-19T21:05:43.133Z,3.28
2023-02-19T21:08:50.927Z,3.37
2023-02-19T21:11:53.939Z,4.07
2023-02-19T21:14:56.699Z,3.40
2023-02-19T21:18:01.226Z,3.55
2023-02-19T21:21:04.054Z,5.50
2023-02-19T21:24:09.582Z,4.33
2023-02-19T21:27:15.441Z,4.27
2023-02-19T21:30:18.351Z,4.15
2023-02-19T21:33:21.232Z,4.80
2023-02-19T21:36:23.985Z,4.40
2023-02-19T21:39:27.666Z,5.20
2023-02-19T21:42:30.288Z,4.30
2023-02-19T21:45:43.259Z,5.18
2023-02-19T21:48:49.947Z,4.35
2023-02-19T21:51:52.536Z,4.95
2023-02-19T21:54:58.321Z,4.60
2023-02-19T21:58:00.902Z,4.37
2023-02-19T22:01:03.539Z,5.35
2023-02-19T22:04:07.260Z,5.75
2023-02-19T22:07:10.012Z,3.58
2023-02-19T22:10:16.775Z,4.00
2023-02-19T22:13:19.471Z,5.43
2023-02-19T22:16:22.275Z,6.00
2023-02-19T22:19:24.887Z,3.85
2023-02-19T22:22:27.443Z,4.25
2023-02-19T22:25:29.943Z,4.53
2023-02-19T22:28:32.538Z,4.67
2023-02-19T22:31:38.153Z,4.55
2023-02-19T22:34:42.003Z,4.28
2023-02-19T22:37:44.589Z,4.32
2023-02-19T22:40:47.227Z,4.23
2023-02-19T22:43:50.508Z,4.43
2023-02-19T22:46:55.301Z,3.47
2023-02-19T22:49:57.890Z,3.65
2023-02-19T22:53:00.450Z,3.08
2023-02-19T22:56:03.143Z,4.30
2023-02-19T22:59:05.774Z,3.97
2023-02-19T23:02:08.344Z,4.18
2023-02-19T23:05:10.901Z,3.50
2023-02-19T23:08:16.519Z,7.25
2023-02-19T23:11:24.737Z,4.90
2023-02-19T23:14:27.358Z,3.10
2023-02-19T23:17:30.004Z,3.58
2023-02-19T23:20:32.737Z,4.30
2023-02-19T23:23:35.362Z,3.78
2023-02-19T23:26:49.290Z,3.90
2023-02-19T23:29:51.932Z,3.67
2023-02-19T23:32:54.483Z,4.07
2023-02-19T23:35:57.073Z,4.70
2023-02-19T23:39:03.495Z,4.30
2023-02-19T23:42:06.094Z,3.53
2023-02-19T23:45:09.185Z,3.30
2023-02-19T23:48:11.818Z,12.65
2023-02-19T23:51:14.545Z,4.05
2023-02-19T23:54:17.254Z,3.28
2023-02-19T23:57:20.289Z,5.23
